sensor_id;sensor_type;location;lat;lon;timestamp;temperature;humidity
25640;DHT22;13497;48.322;16.204;2022-12-18T00:01:01;-0.10;99.90
25640;DHT22;13497;48.322;16.204;2022-12-18T00:03:32;-0.10;99.90
25640;DHT22;13497;48.322;16.204;2022-12-18T00:05:58;-0.10;99.90
25640;DHT22;13497;48.322;16.204;2022-12-18T00:08:23;-0.10;99.90
25640;DHT22;13497;48.322;16.204;2022-12-18T00:10:49;-0.10;99.90
25640;DHT22;13497;48.322;16.204;2022-12-18T00:13:15;-0.10;99.90
25640;DHT22;13497;48.322;16.204;2022-12-18T00:15:40;-0.20;99.90
25640;DHT22;13497;48.322;16.204;2022-12-18T00:18:06;-0.30;99.90
25640;DHT22;13497;48.322;16.204;2022-12-18T00:20:36;-0.40;99.90
25640;DHT22;13497;48.322;16.204;2022-12-18T00:23:02;-0.30;99.90
25640;DHT22;13497;48.322;16.204;2022-12-18T00:25:28;-0.40;99.90
25640;DHT22;13497;48.322;16.204;2022-12-18T00:27:53;-0.50;99.90
25640;DHT22;13497;48.322;16.204;2022-12-18T00:30:19;-0.50;99.90
25640;DHT22;13497;48.322;16.204;2022-12-18T00:32:45;-0.50;99.90
25640;DHT22;13497;48.322;16.204;2022-12-18T00:35:11;-0.50;99.90
25640;DHT22;13497;48.322;16.204;2022-12-18T00:37:36;-0.50;99.90
25640;DHT22;13497;48.322;16.204;2022-12-18T00:40:03;-0.60;99.90
25640;DHT22;13497;48.322;16.204;2022-12-18T00:42:28;-0.80;99.90
25640;DHT22;13497;48.322;16.204;2022-12-18T00:45:13;-0.70;99.90
25640;DHT22;13497;48.322;16.204;2022-12-18T00:47:38;-0.70;99.90
25640;DHT22;13497;48.322;16.204;2022-12-18T00:50:04;-0.80;99.90
25640;DHT22;13497;48.322;16.204;2022-12-18T00:52:30;-0.70;99.90
25640;DHT22;13497;48.322;16.204;2022-12-18T00:54:56;-0.70;99.90
25640;DHT22;13497;48.322;16.204;2022-12-18T00:57:21;-0.80;99.90
25640;DHT22;13497;48.322;16.204;2022-12-18T00:59:48;-0.90;99.90
25640;DHT22;13497;48.322;16.204;2022-12-18T01:02:13;-0.90;99.90
25640;DHT22;13497;48.322;16.204;2022-12-18T01:04:39;-1.00;99.90
25640;DHT22;13497;48.322;16.204;2022-12-18T01:07:05;-0.90;99.90
25640;DHT22;13497;48.322;16.204;2022-12-18T01:09:30;-0.90;99.90
25640;DHT22;13497;48.322;16.204;2022-12-18T01:11:56;-1.00;99.90
25640;DHT22;13497;48.322;16.204;2022-12-18T01:14:21;-1.10;99.90
25640;DHT22;13497;48.322;16.204;2022-12-18T01:16:47;-1.20;99.90
25640;DHT22;13497;48.322;16.204;2022-12-18T01:19:13;-1.20;99.90
25640;DHT22;13497;48.322;16.204;2022-12-18T01:21:39;-1.20;99.90
25640;DHT22;13497;48.322;16.204;2022-12-18T01:24:05;-1.30;99.90
25640;DHT22;13497;48.322;16.204;2022-12-18T01:26:30;-1.40;99.90
25640;DHT22;13497;48.322;16.204;2022-12-18T01:28:56;-1.40;99.90
25640;DHT22;13497;48.322;16.204;2022-12-18T01:31:31;-1.50;99.90
25640;DHT22;13497;48.322;16.204;2022-12-18T01:33:57;-1.60;99.90
25640;DHT22;13497;48.322;16.204;2022-12-18T01:36:25;-1.50;99.90
25640;DHT22;13497;48.322;16.204;2022-12-18T01:38:52;-1.60;99.90
25640;DHT22;13497;48.322;16.204;2022-12-18T01:41:21;-1.70;99.90
25640;DHT22;13497;48.322;16.204;2022-12-18T01:46:21;-1.80;99.90
25640;DHT22;13497;48.322;16.204;2022-12-18T01:48:48;-1.90;99.90
25640;DHT22;13497;48.322;16.204;2022-12-18T01:51:16;-2.00;99.90
25640;DHT22;13497;48.322;16.204;2022-12-18T01:53:42;-2.10;99.90
25640;DHT22;13497;48.322;16.204;2022-12-18T01:56:13;-2.20;99.90
25640;DHT22;13497;48.322;16.204;2022-12-18T02:01:17;-2.20;99.90
25640;DHT22;13497;48.322;16.204;2022-12-18T02:03:44;-2.30;99.90
25640;DHT22;13497;48.322;16.204;2022-12-18T02:06:20;-2.30;99.90
25640;DHT22;13497;48.322;16.204;2022-12-18T02:09:09;-2.40;99.90
25640;DHT22;13497;48.322;16.204;2022-12-18T02:17:21;-2.50;99.90
25640;DHT22;13497;48.322;16.204;2022-12-18T02:20:16;-2.50;99.90
25640;DHT22;13497;48.322;16.204;2022-12-18T02:28:33;-2.60;99.90
25640;DHT22;13497;48.322;16.204;2022-12-18T02:31:02;-2.60;99.90
25640;DHT22;13497;48.322;16.204;2022-12-18T02:33:30;-2.60;99.90
25640;DHT22;13497;48.322;16.204;2022-12-18T02:35:58;-2.60;99.90
25640;DHT22;13497;48.322;16.204;2022-12-18T02:38:25;-2.60;99.90
25640;DHT22;13497;48.322;16.204;2022-12-18T02:40:52;-2.70;99.90
25640;DHT22;13497;48.322;16.204;2022-12-18T02:43:18;-2.70;99.90
25640;DHT22;13497;48.322;16.204;2022-12-18T02:45:55;-2.70;99.90
25640;DHT22;13497;48.322;16.204;2022-12-18T02:48:28;-2.80;99.90
25640;DHT22;13497;48.322;16.204;2022-12-18T02:51:04;-2.90;99.90
25640;DHT22;13497;48.322;16.204;2022-12-18T02:53:57;-2.90;99.90
25640;DHT22;13497;48.322;16.204;2022-12-18T02:56:30;-2.90;99.90
25640;DHT22;13497;48.322;16.204;2022-12-18T02:59:07;-3.00;99.90
25640;DHT22;13497;48.322;16.204;2022-12-18T03:04:39;-3.00;99.90
25640;DHT22;13497;48.322;16.204;2022-12-18T03:07:16;-3.10;99.90
25640;DHT22;13497;48.322;16.204;2022-12-18T03:09:47;-3.00;99.90
25640;DHT22;13497;48.322;16.204;2022-12-18T03:15:33;-3.20;99.90
25640;DHT22;13497;48.322;16.204;2022-12-18T03:18:04;-3.20;99.90
25640;DHT22;13497;48.322;16.204;2022-12-18T03:20:33;-3.30;99.90
25640;DHT22;13497;48.322;16.204;2022-12-18T03:23:15;-3.40;99.90
25640;DHT22;13497;48.322;16.204;2022-12-18T03:25:44;-3.30;99.90
25640;DHT22;13497;48.322;16.204;2022-12-18T03:28:15;-3.30;99.90
25640;DHT22;13497;48.322;16.204;2022-12-18T03:30:46;-3.40;99.90
25640;DHT22;13497;48.322;16.204;2022-12-18T03:33:19;-3.50;99.90
25640;DHT22;13497;48.322;16.204;2022-12-18T03:35:47;-3.40;99.90
25640;DHT22;13497;48.322;16.204;2022-12-18T03:38:13;-3.40;99.90
25640;DHT22;13497;48.322;16.204;2022-12-18T03:40:51;-3.40;99.90
25640;DHT22;13497;48.322;16.204;2022-12-18T03:43:49;-3.50;99.90
25640;DHT22;13497;48.322;16.204;2022-12-18T03:49:00;-3.60;99.90
25640;DHT22;13497;48.322;16.204;2022-12-18T03:54:03;-3.70;99.90
25640;DHT22;13497;48.322;16.204;2022-12-18T03:56:32;-3.60;99.90
25640;DHT22;13497;48.322;16.204;2022-12-18T03:59:00;-3.70;99.90
25640;DHT22;13497;48.322;16.204;2022-12-18T04:01:31;-3.80;99.90
25640;DHT22;13497;48.322;16.204;2022-12-18T04:04:00;-3.80;99.90
25640;DHT22;13497;48.322;16.204;2022-12-18T04:06:27;-3.80;99.90
25640;DHT22;13497;48.322;16.204;2022-12-18T04:08:54;-3.90;99.90
25640;DHT22;13497;48.322;16.204;2022-12-18T04:11:20;-3.80;99.90
25640;DHT22;13497;48.322;16.204;2022-12-18T04:13:45;-3.80;99.90
25640;DHT22;13497;48.322;16.204;2022-12-18T04:16:11;-3.90;99.90
25640;DHT22;13497;48.322;16.204;2022-12-18T04:18:37;-3.80;99.90
25640;DHT22;13497;48.322;16.204;2022-12-18T04:21:02;-3.70;99.90
25640;DHT22;13497;48.322;16.204;2022-12-18T04:23:28;-3.80;99.90
25640;DHT22;13497;48.322;16.204;2022-12-18T04:25:54;-3.80;99.90
25640;DHT22;13497;48.322;16.204;2022-12-18T04:28:20;-3.80;99.90
25640;DHT22;13497;48.322;16.204;2022-12-18T04:30:49;-3.80;99.90
25640;DHT22;13497;48.322;16.204;2022-12-18T04:33:17;-4.00;99.90
25640;DHT22;13497;48.322;16.204;2022-12-18T04:35:43;-4.10;99.90
25640;DHT22;13497;48.322;16.204;2022-12-18T04:38:09;-4.10;99.90
25640;DHT22;13497;48.322;16.204;2022-12-18T04:40:36;-4.10;99.90
25640;DHT22;13497;48.322;16.204;2022-12-18T04:43:02;-4.10;99.90
25640;DHT22;13497;48.322;16.204;2022-12-18T04:45:28;-4.00;99.90
25640;DHT22;13497;48.322;16.204;2022-12-18T04:47:53;-3.90;99.90
25640;DHT22;13497;48.322;16.204;2022-12-18T04:50:19;-4.00;99.90
25640;DHT22;13497;48.322;16.204;2022-12-18T04:52:44;-4.00;99.90
25640;DHT22;13497;48.322;16.204;2022-12-18T04:55:10;-4.00;99.90
25640;DHT22;13497;48.322;16.204;2022-12-18T04:57:36;-4.00;99.90
25640;DHT22;13497;48.322;16.204;2022-12-18T05:00:02;-4.00;99.90
25640;DHT22;13497;48.322;16.204;2022-12-18T05:02:28;-4.10;99.90
25640;DHT22;13497;48.322;16.204;2022-12-18T05:04:53;-4.20;99.90
25640;DHT22;13497;48.322;16.204;2022-12-18T05:07:19;-4.20;99.90
25640;DHT22;13497;48.322;16.204;2022-12-18T05:09:45;-4.10;99.90
25640;DHT22;13497;48.322;16.204;2022-12-18T05:12:10;-4.20;99.90
25640;DHT22;13497;48.322;16.204;2022-12-18T05:14:36;-4.10;99.90
25640;DHT22;13497;48.322;16.204;2022-12-18T05:17:02;-4.10;99.90
25640;DHT22;13497;48.322;16.204;2022-12-18T05:19:27;-4.10;99.90
25640;DHT22;13497;48.322;16.204;2022-12-18T05:21:53;-4.10;99.90
25640;DHT22;13497;48.322;16.204;2022-12-18T05:24:18;-4.20;99.90
25640;DHT22;13497;48.322;16.204;2022-12-18T05:26:44;-4.20;99.90
25640;DHT22;13497;48.322;16.204;2022-12-18T05:29:10;-4.30;99.90
25640;DHT22;13497;48.322;16.204;2022-12-18T05:31:38;-4.30;99.90
25640;DHT22;13497;48.322;16.204;2022-12-18T05:34:04;-4.30;99.90
25640;DHT22;13497;48.322;16.204;2022-12-18T05:36:29;-4.30;99.90
25640;DHT22;13497;48.322;16.204;2022-12-18T05:38:55;-4.40;99.90
25640;DHT22;13497;48.322;16.204;2022-12-18T05:41:21;-4.50;99.90
25640;DHT22;13497;48.322;16.204;2022-12-18T05:43:46;-4.50;99.90
25640;DHT22;13497;48.322;16.204;2022-12-18T05:46:15;-4.50;99.90
25640;DHT22;13497;48.322;16.204;2022-12-18T05:48:43;-4.40;99.90
25640;DHT22;13497;48.322;16.204;2022-12-18T05:51:11;-4.50;99.90
25640;DHT22;13497;48.322;16.204;2022-12-18T05:53:38;-4.40;99.90
25640;DHT22;13497;48.322;16.204;2022-12-18T05:56:05;-4.50;99.90
25640;DHT22;13497;48.322;16.204;2022-12-18T05:58:32;-4.50;99.90
25640;DHT22;13497;48.322;16.204;2022-12-18T06:01:05;-4.60;99.90
25640;DHT22;13497;48.322;16.204;2022-12-18T06:03:31;-4.60;99.90
25640;DHT22;13497;48.322;16.204;2022-12-18T06:05:56;-4.60;99.90
25640;DHT22;13497;48.322;16.204;2022-12-18T06:08:22;-4.70;99.90
25640;DHT22;13497;48.322;16.204;2022-12-18T06:10:51;-4.70;99.90
25640;DHT22;13497;48.322;16.204;2022-12-18T06:13:20;-4.70;99.90
25640;DHT22;13497;48.322;16.204;2022-12-18T06:15:46;-4.70;99.90
25640;DHT22;13497;48.322;16.204;2022-12-18T06:18:12;-4.70;99.90
25640;DHT22;13497;48.322;16.204;2022-12-18T06:20:38;-4.70;99.90
25640;DHT22;13497;48.322;16.204;2022-12-18T06:23:05;-4.70;99.90
25640;DHT22;13497;48.322;16.204;2022-12-18T06:25:31;-4.70;99.90
25640;DHT22;13497;48.322;16.204;2022-12-18T06:27:57;-4.60;99.90
25640;DHT22;13497;48.322;16.204;2022-12-18T06:30:23;-4.60;99.90
25640;DHT22;13497;48.322;16.204;2022-12-18T06:32:49;-4.70;99.90
25640;DHT22;13497;48.322;16.204;2022-12-18T06:35:15;-4.80;99.90
25640;DHT22;13497;48.322;16.204;2022-12-18T06:37:41;-4.90;99.90
25640;DHT22;13497;48.322;16.204;2022-12-18T06:40:07;-4.80;99.90
25640;DHT22;13497;48.322;16.204;2022-12-18T06:42:33;-4.90;99.90
25640;DHT22;13497;48.322;16.204;2022-12-18T06:44:59;-4.90;99.90
25640;DHT22;13497;48.322;16.204;2022-12-18T06:47:24;-5.00;99.90
25640;DHT22;13497;48.322;16.204;2022-12-18T06:49:50;-5.00;99.90
25640;DHT22;13497;48.322;16.204;2022-12-18T06:52:16;-5.10;99.90
25640;DHT22;13497;48.322;16.204;2022-12-18T06:54:42;-5.00;99.90
25640;DHT22;13497;48.322;16.204;2022-12-18T06:57:07;-5.00;99.90
25640;DHT22;13497;48.322;16.204;2022-12-18T06:59:33;-5.00;99.90
25640;DHT22;13497;48.322;16.204;2022-12-18T07:01:59;-4.30;99.90
25640;DHT22;13497;48.322;16.204;2022-12-18T07:04:31;-4.40;99.90
25640;DHT22;13497;48.322;16.204;2022-12-18T07:06:57;-4.40;99.90
25640;DHT22;13497;48.322;16.204;2022-12-18T07:09:23;-4.50;99.90
25640;DHT22;13497;48.322;16.204;2022-12-18T07:11:49;-4.60;99.90
25640;DHT22;13497;48.322;16.204;2022-12-18T07:14:15;-4.60;99.90
25640;DHT22;13497;48.322;16.204;2022-12-18T07:16:40;-4.50;99.90
25640;DHT22;13497;48.322;16.204;2022-12-18T07:19:06;-4.60;99.90
25640;DHT22;13497;48.322;16.204;2022-12-18T07:21:31;-4.60;99.90
25640;DHT22;13497;48.322;16.204;2022-12-18T07:23:57;-4.70;99.90
25640;DHT22;13497;48.322;16.204;2022-12-18T07:26:23;-4.60;99.90
25640;DHT22;13497;48.322;16.204;2022-12-18T07:28:49;-4.60;99.90
25640;DHT22;13497;48.322;16.204;2022-12-18T07:31:20;-4.60;99.90
25640;DHT22;13497;48.322;16.204;2022-12-18T07:33:46;-4.70;99.90
25640;DHT22;13497;48.322;16.204;2022-12-18T07:36:12;-4.70;99.90
25640;DHT22;13497;48.322;16.204;2022-12-18T07:38:38;-4.60;99.90
25640;DHT22;13497;48.322;16.204;2022-12-18T07:41:08;-4.60;99.90
25640;DHT22;13497;48.322;16.204;2022-12-18T07:43:34;-4.60;99.90
25640;DHT22;13497;48.322;16.204;2022-12-18T07:46:00;-4.70;99.90
25640;DHT22;13497;48.322;16.204;2022-12-18T07:48:26;-4.60;99.90
25640;DHT22;13497;48.322;16.204;2022-12-18T07:50:52;-4.60;99.90
25640;DHT22;13497;48.322;16.204;2022-12-18T07:53:18;-4.60;99.90
25640;DHT22;13497;48.322;16.204;2022-12-18T07:55:43;-4.60;99.90
25640;DHT22;13497;48.322;16.204;2022-12-18T07:58:09;-4.50;99.90
25640;DHT22;13497;48.322;16.204;2022-12-18T08:00:35;-4.50;99.90
25640;DHT22;13497;48.322;16.204;2022-12-18T08:03:01;-4.40;99.90
25640;DHT22;13497;48.322;16.204;2022-12-18T08:05:27;-4.50;99.90
25640;DHT22;13497;48.322;16.204;2022-12-18T08:07:53;-4.50;99.90
25640;DHT22;13497;48.322;16.204;2022-12-18T08:10:19;-4.30;99.90
25640;DHT22;13497;48.322;16.204;2022-12-18T08:12:45;-4.30;99.90
25640;DHT22;13497;48.322;16.204;2022-12-18T08:15:14;-4.20;99.90
25640;DHT22;13497;48.322;16.204;2022-12-18T08:17:39;-4.10;99.90
25640;DHT22;13497;48.322;16.204;2022-12-18T08:20:05;-4.10;99.90
25640;DHT22;13497;48.322;16.204;2022-12-18T08:22:34;-4.00;99.90
25640;DHT22;13497;48.322;16.204;2022-12-18T08:25:00;-4.00;99.90
25640;DHT22;13497;48.322;16.204;2022-12-18T08:27:25;-4.00;99.90
25640;DHT22;13497;48.322;16.204;2022-12-18T08:29:51;-3.90;99.90
25640;DHT22;13497;48.322;16.204;2022-12-18T08:32:17;-3.80;99.90
25640;DHT22;13497;48.322;16.204;2022-12-18T08:34:42;-3.80;99.90
25640;DHT22;13497;48.322;16.204;2022-12-18T08:37:08;-3.70;99.90
25640;DHT22;13497;48.322;16.204;2022-12-18T08:39:33;-3.60;99.90
25640;DHT22;13497;48.322;16.204;2022-12-18T08:41:59;-3.60;99.90
25640;DHT22;13497;48.322;16.204;2022-12-18T08:44:44;-3.50;99.90
25640;DHT22;13497;48.322;16.204;2022-12-18T08:47:09;-3.50;99.90
25640;DHT22;13497;48.322;16.204;2022-12-18T08:49:36;-3.50;99.90
25640;DHT22;13497;48.322;16.204;2022-12-18T08:52:02;-3.50;99.90
25640;DHT22;13497;48.322;16.204;2022-12-18T08:54:28;-3.40;99.90
25640;DHT22;13497;48.322;16.204;2022-12-18T08:56:54;-3.30;99.90
25640;DHT22;13497;48.322;16.204;2022-12-18T08:59:20;-3.30;99.90
25640;DHT22;13497;48.322;16.204;2022-12-18T09:01:46;-3.30;99.90
25640;DHT22;13497;48.322;16.204;2022-12-18T09:04:12;-3.30;99.90
25640;DHT22;13497;48.322;16.204;2022-12-18T09:06:39;-3.20;99.90
25640;DHT22;13497;48.322;16.204;2022-12-18T09:09:05;-3.30;99.90
25640;DHT22;13497;48.322;16.204;2022-12-18T09:11:32;-3.20;99.90
25640;DHT22;13497;48.322;16.204;2022-12-18T09:14:00;-3.00;99.90
25640;DHT22;13497;48.322;16.204;2022-12-18T09:16:27;-3.00;99.90
25640;DHT22;13497;48.322;16.204;2022-12-18T09:18:54;-3.00;99.90
25640;DHT22;13497;48.322;16.204;2022-12-18T09:21:25;-2.90;99.90
25640;DHT22;13497;48.322;16.204;2022-12-18T09:23:52;-2.80;99.90
25640;DHT22;13497;48.322;16.204;2022-12-18T09:26:19;-2.70;99.90
25640;DHT22;13497;48.322;16.204;2022-12-18T09:28:45;-2.30;99.90
25640;DHT22;13497;48.322;16.204;2022-12-18T09:31:15;-1.90;99.90
25640;DHT22;13497;48.322;16.204;2022-12-18T09:33:41;-1.80;99.90
25640;DHT22;13497;48.322;16.204;2022-12-18T09:36:09;-1.50;99.90
25640;DHT22;13497;48.322;16.204;2022-12-18T09:38:36;-1.40;99.90
25640;DHT22;13497;48.322;16.204;2022-12-18T09:46:52;-1.20;99.90
25640;DHT22;13497;48.322;16.204;2022-12-18T09:49:21;-1.10;99.90
25640;DHT22;13497;48.322;16.204;2022-12-18T09:51:57;-1.00;99.90
25640;DHT22;13497;48.322;16.204;2022-12-18T09:54:33;-0.70;99.90
25640;DHT22;13497;48.322;16.204;2022-12-18T09:57:01;-0.70;99.90
25640;DHT22;13497;48.322;16.204;2022-12-18T09:59:37;-0.50;99.90
25640;DHT22;13497;48.322;16.204;2022-12-18T10:02:24;-0.30;99.90
25640;DHT22;13497;48.322;16.204;2022-12-18T10:07:47;-0.20;99.90
25640;DHT22;13497;48.322;16.204;2022-12-18T10:10:30;-0.40;99.90
25640;DHT22;13497;48.322;16.204;2022-12-18T10:15:54;-0.70;99.90
25640;DHT22;13497;48.322;16.204;2022-12-18T10:20:54;-0.80;99.90
25640;DHT22;13497;48.322;16.204;2022-12-18T10:26:02;-1.20;99.90
25640;DHT22;13497;48.322;16.204;2022-12-18T10:28:30;-0.90;99.90
25640;DHT22;13497;48.322;16.204;2022-12-18T10:30:56;-0.90;99.90
25640;DHT22;13497;48.322;16.204;2022-12-18T10:33:27;-0.90;99.90
25640;DHT22;13497;48.322;16.204;2022-12-18T10:35:53;-0.90;99.90
25640;DHT22;13497;48.322;16.204;2022-12-18T10:38:23;-0.90;99.90
25640;DHT22;13497;48.322;16.204;2022-12-18T10:41:03;-0.90;99.90
25640;DHT22;13497;48.322;16.204;2022-12-18T10:43:39;-0.90;99.90
25640;DHT22;13497;48.322;16.204;2022-12-18T10:51:24;-1.20;99.90
25640;DHT22;13497;48.322;16.204;2022-12-18T10:53:57;-1.30;99.90
25640;DHT22;13497;48.322;16.204;2022-12-18T10:56:26;-1.40;99.90
25640;DHT22;13497;48.322;16.204;2022-12-18T10:59:04;-1.20;99.90
25640;DHT22;13497;48.322;16.204;2022-12-18T11:04:22;-1.00;99.90
25640;DHT22;13497;48.322;16.204;2022-12-18T11:07:14;-1.20;99.90
25640;DHT22;13497;48.322;16.204;2022-12-18T11:09:40;-1.10;99.90
25640;DHT22;13497;48.322;16.204;2022-12-18T11:12:17;-1.00;99.90
25640;DHT22;13497;48.322;16.204;2022-12-18T11:14:47;-1.00;99.90
25640;DHT22;13497;48.322;16.204;2022-12-18T11:19:53;-0.70;99.90
25640;DHT22;13497;48.322;16.204;2022-12-18T11:22:30;-0.60;99.90
25640;DHT22;13497;48.322;16.204;2022-12-18T11:25:05;-0.70;99.90
25640;DHT22;13497;48.322;16.204;2022-12-18T11:27:32;-0.90;99.90
25640;DHT22;13497;48.322;16.204;2022-12-18T11:32:52;-1.40;99.90
25640;DHT22;13497;48.322;16.204;2022-12-18T11:37:55;-1.30;99.90
25640;DHT22;13497;48.322;16.204;2022-12-18T11:40:37;-1.30;99.90
25640;DHT22;13497;48.322;16.204;2022-12-18T11:43:25;-1.20;99.90
25640;DHT22;13497;48.322;16.204;2022-12-18T11:45:56;-1.10;99.90
25640;DHT22;13497;48.322;16.204;2022-12-18T11:48:49;-0.80;99.90
25640;DHT22;13497;48.322;16.204;2022-12-18T11:51:51;-0.80;99.90
25640;DHT22;13497;48.322;16.204;2022-12-18T11:54:17;-1.10;99.90
25640;DHT22;13497;48.322;16.204;2022-12-18T11:59:54;-1.20;99.90
25640;DHT22;13497;48.322;16.204;2022-12-18T12:05:31;-0.90;99.90
25640;DHT22;13497;48.322;16.204;2022-12-18T12:10:57;-1.10;99.90
25640;DHT22;13497;48.322;16.204;2022-12-18T12:13:47;-1.20;99.90
25640;DHT22;13497;48.322;16.204;2022-12-18T12:16:31;-1.50;99.90
25640;DHT22;13497;48.322;16.204;2022-12-18T12:19:18;-1.50;99.90
25640;DHT22;13497;48.322;16.204;2022-12-18T12:22:11;-1.50;99.90
25640;DHT22;13497;48.322;16.204;2022-12-18T12:24:48;-1.40;99.90
25640;DHT22;13497;48.322;16.204;2022-12-18T12:33:03;-1.20;99.90
25640;DHT22;13497;48.322;16.204;2022-12-18T12:36:08;-1.10;99.90
25640;DHT22;13497;48.322;16.204;2022-12-18T12:38:43;-1.10;99.90
25640;DHT22;13497;48.322;16.204;2022-12-18T12:41:14;-1.10;99.90
25640;DHT22;13497;48.322;16.204;2022-12-18T12:44:02;-1.10;99.90
25640;DHT22;13497;48.322;16.204;2022-12-18T12:46:34;-1.10;99.90
25640;DHT22;13497;48.322;16.204;2022-12-18T12:49:03;-1.00;99.90
25640;DHT22;13497;48.322;16.204;2022-12-18T12:51:40;-1.10;99.90
25640;DHT22;13497;48.322;16.204;2022-12-18T12:54:18;-1.10;99.90
25640;DHT22;13497;48.322;16.204;2022-12-18T12:57:07;-1.30;99.90
25640;DHT22;13497;48.322;16.204;2022-12-18T13:03:18;-1.30;99.90
25640;DHT22;13497;48.322;16.204;2022-12-18T13:08:30;-1.20;99.90
25640;DHT22;13497;48.322;16.204;2022-12-18T13:10:57;-1.00;99.90
25640;DHT22;13497;48.322;16.204;2022-12-18T13:13:53;-1.10;99.90
25640;DHT22;13497;48.322;16.204;2022-12-18T13:16:21;-1.10;99.90
25640;DHT22;13497;48.322;16.204;2022-12-18T13:18:55;-1.10;99.90
25640;DHT22;13497;48.322;16.204;2022-12-18T13:21:28;-1.10;99.90
25640;DHT22;13497;48.322;16.204;2022-12-18T13:23:55;-1.20;99.90
25640;DHT22;13497;48.322;16.204;2022-12-18T13:28:52;-1.20;99.90
25640;DHT22;13497;48.322;16.204;2022-12-18T13:34:25;-1.30;99.90
25640;DHT22;13497;48.322;16.204;2022-12-18T13:36:52;-1.30;99.90
25640;DHT22;13497;48.322;16.204;2022-12-18T13:41:49;-1.40;99.90
25640;DHT22;13497;48.322;16.204;2022-12-18T13:44:35;-1.20;99.90
25640;DHT22;13497;48.322;16.204;2022-12-18T13:47:05;-1.20;99.90
25640;DHT22;13497;48.322;16.204;2022-12-18T13:49:49;-1.10;99.90
25640;DHT22;13497;48.322;16.204;2022-12-18T13:52:18;-1.10;99.90
25640;DHT22;13497;48.322;16.204;2022-12-18T13:54:51;-1.20;99.90
25640;DHT22;13497;48.322;16.204;2022-12-18T13:57:31;-1.30;99.90
25640;DHT22;13497;48.322;16.204;2022-12-18T13:59:58;-1.30;99.90
25640;DHT22;13497;48.322;16.204;2022-12-18T14:02:27;-1.30;99.90
25640;DHT22;13497;48.322;16.204;2022-12-18T14:04:54;-1.30;99.90
25640;DHT22;13497;48.322;16.204;2022-12-18T14:07:22;-1.50;99.90
25640;DHT22;13497;48.322;16.204;2022-12-18T14:09:58;-1.10;99.90
25640;DHT22;13497;48.322;16.204;2022-12-18T14:12:33;-1.00;99.90
25640;DHT22;13497;48.322;16.204;2022-12-18T14:15:38;-1.00;99.90
25640;DHT22;13497;48.322;16.204;2022-12-18T14:18:24;-1.10;99.90
25640;DHT22;13497;48.322;16.204;2022-12-18T14:20:53;-1.20;99.90
25640;DHT22;13497;48.322;16.204;2022-12-18T14:23:36;-1.40;99.90
25640;DHT22;13497;48.322;16.204;2022-12-18T14:26:25;-1.30;99.90
25640;DHT22;13497;48.322;16.204;2022-12-18T14:28:49;-1.30;99.90
25640;DHT22;13497;48.322;16.204;2022-12-18T14:31:26;-1.30;99.90
25640;DHT22;13497;48.322;16.204;2022-12-18T14:33:53;-1.20;99.90
25640;DHT22;13497;48.322;16.204;2022-12-18T14:36:28;-1.30;99.90
25640;DHT22;13497;48.322;16.204;2022-12-18T14:38:56;-1.30;99.90
25640;DHT22;13497;48.322;16.204;2022-12-18T14:41:23;-1.20;99.90
25640;DHT22;13497;48.322;16.204;2022-12-18T14:43:51;-1.20;99.90
25640;DHT22;13497;48.322;16.204;2022-12-18T14:49:03;-1.10;99.90
25640;DHT22;13497;48.322;16.204;2022-12-18T14:51:31;-1.10;99.90
25640;DHT22;13497;48.322;16.204;2022-12-18T14:53:59;-1.10;99.90
25640;DHT22;13497;48.322;16.204;2022-12-18T14:56:36;-1.20;99.90
25640;DHT22;13497;48.322;16.204;2022-12-18T14:59:04;-1.20;99.90
25640;DHT22;13497;48.322;16.204;2022-12-18T15:01:44;-1.30;99.90
25640;DHT22;13497;48.322;16.204;2022-12-18T15:04:42;-1.30;99.90
25640;DHT22;13497;48.322;16.204;2022-12-18T15:07:16;-1.40;99.90
25640;DHT22;13497;48.322;16.204;2022-12-18T15:12:45;-1.40;99.90
25640;DHT22;13497;48.322;16.204;2022-12-18T15:20:42;-1.30;99.90
25640;DHT22;13497;48.322;16.204;2022-12-18T15:23:18;-1.30;99.90
25640;DHT22;13497;48.322;16.204;2022-12-18T15:25:46;-1.20;99.90
25640;DHT22;13497;48.322;16.204;2022-12-18T15:28:23;-1.20;99.90
25640;DHT22;13497;48.322;16.204;2022-12-18T15:33:59;-0.90;99.90
25640;DHT22;13497;48.322;16.204;2022-12-18T15:36:29;-1.00;99.90
25640;DHT22;13497;48.322;16.204;2022-12-18T15:38:57;-1.00;99.90
25640;DHT22;13497;48.322;16.204;2022-12-18T15:41:23;-1.00;99.90
25640;DHT22;13497;48.322;16.204;2022-12-18T15:43:51;-1.00;99.90
25640;DHT22;13497;48.322;16.204;2022-12-18T15:46:23;-1.00;99.90
25640;DHT22;13497;48.322;16.204;2022-12-18T15:48:51;-1.10;99.90
25640;DHT22;13497;48.322;16.204;2022-12-18T15:51:19;-1.00;99.90
25640;DHT22;13497;48.322;16.204;2022-12-18T15:53:47;-1.20;99.90
25640;DHT22;13497;48.322;16.204;2022-12-18T15:56:14;-1.10;99.90
25640;DHT22;13497;48.322;16.204;2022-12-18T15:59:00;-1.10;99.90
25640;DHT22;13497;48.322;16.204;2022-12-18T16:01:27;-1.20;99.90
25640;DHT22;13497;48.322;16.204;2022-12-18T16:03:54;-1.10;99.90
25640;DHT22;13497;48.322;16.204;2022-12-18T16:06:21;-1.00;99.90
25640;DHT22;13497;48.322;16.204;2022-12-18T16:08:46;-0.90;99.90
25640;DHT22;13497;48.322;16.204;2022-12-18T16:11:25;-0.90;99.90
25640;DHT22;13497;48.322;16.204;2022-12-18T16:14:11;-1.10;99.90
25640;DHT22;13497;48.322;16.204;2022-12-18T16:16:39;-1.10;99.90
25640;DHT22;13497;48.322;16.204;2022-12-18T16:19:05;-1.10;99.90
25640;DHT22;13497;48.322;16.204;2022-12-18T16:21:30;-1.20;99.90
25640;DHT22;13497;48.322;16.204;2022-12-18T16:23:56;-1.10;99.90
25640;DHT22;13497;48.322;16.204;2022-12-18T16:26:22;-1.20;99.90
25640;DHT22;13497;48.322;16.204;2022-12-18T16:28:47;-1.20;99.90
25640;DHT22;13497;48.322;16.204;2022-12-18T16:31:13;-1.20;99.90
25640;DHT22;13497;48.322;16.204;2022-12-18T16:33:38;-1.10;99.90
25640;DHT22;13497;48.322;16.204;2022-12-18T16:36:04;-1.20;99.90
25640;DHT22;13497;48.322;16.204;2022-12-18T16:38:30;-1.20;99.90
25640;DHT22;13497;48.322;16.204;2022-12-18T16:40:56;-1.10;99.90
25640;DHT22;13497;48.322;16.204;2022-12-18T16:43:41;-1.00;99.90
25640;DHT22;13497;48.322;16.204;2022-12-18T16:46:07;-1.00;99.90
25640;DHT22;13497;48.322;16.204;2022-12-18T16:48:35;-0.90;99.90
25640;DHT22;13497;48.322;16.204;2022-12-18T16:51:03;-1.00;99.90
25640;DHT22;13497;48.322;16.204;2022-12-18T16:53:29;-1.00;99.90
25640;DHT22;13497;48.322;16.204;2022-12-18T16:55:56;-1.00;99.90
25640;DHT22;13497;48.322;16.204;2022-12-18T16:58:22;-1.10;99.90
25640;DHT22;13497;48.322;16.204;2022-12-18T17:00:48;-1.10;99.90
25640;DHT22;13497;48.322;16.204;2022-12-18T17:03:14;-1.10;99.90
25640;DHT22;13497;48.322;16.204;2022-12-18T17:05:41;-1.10;99.90
25640;DHT22;13497;48.322;16.204;2022-12-18T17:08:07;-1.10;99.90
25640;DHT22;13497;48.322;16.204;2022-12-18T17:10:34;-1.00;99.90
25640;DHT22;13497;48.322;16.204;2022-12-18T17:13:00;-1.10;99.90
25640;DHT22;13497;48.322;16.204;2022-12-18T17:15:26;-1.00;99.90